createdAt,value
2022-10-11T00:00:32.723Z,11.28
2022-10-11T00:02:04.649Z,11.28
2022-10-11T00:03:36.645Z,11.32
2022-10-11T00:05:09.036Z,11.32
2022-10-11T00:06:43.488Z,11.33
2022-10-11T00:08:15.988Z,11.36
2022-10-11T00:09:47.881Z,11.39
2022-10-11T00:11:19.804Z,11.40
2022-10-11T00:12:54.473Z,11.41
2022-10-11T00:14:44.179Z,11.43
2022-10-11T00:16:27.074Z,11.45
2022-10-11T00:18:10.910Z,11.46
2022-10-11T00:19:54.730Z,11.45
2022-10-11T00:21:38.613Z,11.48
2022-10-11T00:23:28.313Z,11.49
2022-10-11T00:25:14.502Z,11.50
2022-10-11T00:26:56.900Z,11.51
2022-10-11T00:28:47.161Z,11.57
2022-10-11T00:30:35.335Z,11.58
2022-10-11T00:32:18.915Z,11.57
2022-10-11T00:34:04.301Z,11.58
2022-10-11T00:35:48.887Z,11.60
2022-10-11T00:37:36.102Z,11.59
2022-10-11T00:39:28.245Z,11.57
2022-10-11T00:41:18.614Z,11.53
2022-10-11T00:43:12.005Z,11.52
2022-10-11T00:45:16.331Z,11.47
2022-10-11T00:47:24.547Z,11.44
2022-10-11T00:49:27.480Z,11.39
2022-10-11T00:51:36.632Z,11.36
2022-10-11T00:53:26.140Z,11.32
2022-10-11T00:55:17.282Z,11.29
2022-10-11T00:57:03.017Z,11.27
2022-10-11T00:58:47.217Z,11.26
2022-10-11T01:00:34.840Z,11.22
2022-10-11T01:02:19.457Z,11.19
2022-10-11T01:04:06.251Z,11.21
2022-10-11T01:05:57.442Z,11.22
2022-10-11T01:07:47.494Z,11.18
2022-10-11T01:09:37.722Z,11.16
2022-10-11T01:11:27.562Z,11.15
2022-10-11T01:13:43.214Z,11.11
2022-10-11T01:15:36.270Z,11.08
2022-10-11T01:17:35.251Z,11.06
2022-10-11T01:19:31.071Z,11.04
2022-10-11T01:21:22.667Z,11.04
2022-10-11T01:23:05.231Z,11.04
2022-10-11T01:25:04.351Z,11.03
2022-10-11T01:27:05.918Z,11.02
2022-10-11T01:28:59.060Z,11.00
2022-10-11T01:30:44.180Z,11.00
2022-10-11T01:32:33.615Z,10.98
2022-10-11T01:34:26.296Z,10.98
2022-10-11T01:36:27.778Z,10.96
2022-10-11T01:38:18.035Z,10.97
2022-10-11T01:40:08.820Z,11.00
2022-10-11T01:41:56.196Z,11.01
2022-10-11T01:43:43.421Z,11.03
2022-10-11T01:45:28.245Z,11.02
2022-10-11T01:47:21.968Z,11.04
2022-10-11T01:49:05.906Z,11.01
2022-10-11T01:50:56.082Z,11.01
2022-10-11T01:52:43.930Z,11.05
2022-10-11T01:55:04.362Z,11.05
2022-10-11T01:57:04.375Z,11.13
2022-10-11T01:59:07.075Z,11.15
2022-10-11T02:01:00.949Z,11.16
2022-10-11T02:03:15.657Z,11.18
2022-10-11T02:05:06.769Z,11.17
2022-10-11T02:06:56.957Z,11.17
2022-10-11T02:08:51.193Z,11.19
2022-10-11T02:10:50.777Z,11.20
2022-10-11T02:12:41.367Z,11.22
2022-10-11T02:14:26.586Z,11.23
2022-10-11T02:16:12.812Z,11.25
2022-10-11T02:17:59.070Z,11.26
2022-10-11T02:19:47.573Z,11.27
2022-10-11T02:21:38.079Z,11.32
2022-10-11T02:23:29.847Z,11.33
2022-10-11T02:25:18.846Z,11.34
2022-10-11T02:27:09.793Z,11.34
2022-10-11T02:28:55.842Z,11.35
2022-10-11T02:30:41.110Z,11.35
2022-10-11T02:32:25.588Z,11.35
2022-10-11T02:34:20.671Z,11.33
2022-10-11T02:36:11.093Z,11.34
2022-10-11T02:38:02.478Z,11.33
2022-10-11T02:39:52.645Z,11.33
2022-10-11T02:41:40.111Z,11.35
2022-10-11T02:43:57.438Z,11.33
2022-10-11T02:45:50.706Z,11.35
2022-10-11T02:47:36.417Z,11.33
2022-10-11T02:49:30.902Z,11.30
2022-10-11T02:51:17.811Z,11.28
2022-10-11T02:53:01.545Z,11.30
2022-10-11T02:54:45.373Z,11.30
2022-10-11T02:56:29.123Z,11.32
2022-10-11T02:58:15.924Z,11.34
2022-10-11T03:00:02.685Z,11.32
2022-10-11T03:01:46.370Z,11.31
2022-10-11T03:03:32.776Z,11.34
2022-10-11T03:05:16.187Z,11.35
2022-10-11T03:07:05.918Z,11.36
2022-10-11T03:08:48.511Z,11.38
2022-10-11T03:10:41.455Z,11.38
2022-10-11T03:12:25.654Z,11.39
2022-10-11T03:14:18.510Z,11.38
2022-10-11T03:16:05.599Z,11.38
2022-10-11T03:17:49.297Z,11.38
2022-10-11T03:19:38.130Z,11.37
2022-10-11T03:21:26.700Z,11.38
2022-10-11T03:23:13.478Z,11.38
2022-10-11T03:25:00.968Z,11.40
2022-10-11T03:26:47.657Z,11.43
2022-10-11T03:28:32.898Z,11.46
2022-10-11T03:30:18.531Z,11.52
2022-10-11T03:32:05.731Z,11.57
2022-10-11T03:33:57.700Z,11.59
2022-10-11T03:35:48.149Z,11.61
2022-10-11T03:37:37.715Z,11.64
2022-10-11T03:39:26.307Z,11.65
2022-10-11T03:41:08.959Z,11.69
2022-10-11T03:42:56.859Z,11.73
2022-10-11T03:44:45.821Z,11.77
2022-10-11T03:46:29.920Z,11.79
2022-10-11T03:48:15.710Z,11.81
2022-10-11T03:49:59.084Z,11.83
2022-10-11T03:51:57.826Z,11.86
2022-10-11T03:53:44.057Z,11.87
2022-10-11T03:55:29.131Z,11.88
2022-10-11T03:57:19.036Z,11.87
2022-10-11T03:59:04.097Z,11.87
2022-10-11T04:00:47.496Z,11.88
2022-10-11T04:02:39.314Z,11.88
2022-10-11T04:04:34.983Z,11.88
2022-10-11T04:06:18.785Z,11.89
2022-10-11T04:08:11.988Z,11.90
2022-10-11T04:09:56.332Z,11.90
2022-10-11T04:11:39.720Z,11.90
2022-10-11T04:13:23.470Z,11.89
2022-10-11T04:15:08.510Z,11.90
2022-10-11T04:17:00.411Z,11.90
2022-10-11T04:18:45.442Z,11.91
2022-10-11T04:20:28.294Z,11.93
2022-10-11T04:22:13.147Z,11.96
2022-10-11T04:23:56.319Z,11.97
2022-10-11T04:25:51.463Z,12.01
2022-10-11T04:27:35.609Z,11.99
2022-10-11T04:29:19.099Z,11.97
2022-10-11T04:31:05.254Z,11.92
2022-10-11T04:32:49.696Z,11.84
2022-10-11T04:34:36.591Z,11.77
2022-10-11T04:36:26.713Z,11.72
2022-10-11T04:38:18.854Z,11.67
2022-10-11T04:40:07.438Z,11.63
2022-10-11T04:41:58.730Z,11.62
2022-10-11T04:43:44.389Z,11.61
2022-10-11T04:45:28.435Z,11.63
2022-10-11T04:47:15.216Z,11.65
2022-10-11T04:48:59.848Z,11.67
2022-10-11T04:50:45.019Z,11.69
2022-10-11T04:52:33.681Z,11.71
2022-10-11T04:54:17.092Z,11.73
2022-10-11T04:56:10.985Z,11.75
2022-10-11T04:57:56.251Z,11.77
2022-10-11T04:59:40.097Z,11.80
2022-10-11T05:01:25.377Z,11.81
2022-10-11T05:03:15.825Z,11.83
2022-10-11T05:04:59.062Z,11.84
2022-10-11T05:06:48.802Z,11.86
2022-10-11T05:08:37.797Z,11.86
2022-10-11T05:10:25.591Z,11.84
2022-10-11T05:12:09.078Z,11.84
2022-10-11T05:13:58.420Z,11.83
2022-10-11T05:15:43.034Z,11.84
2022-10-11T05:17:27.934Z,11.84
2022-10-11T05:19:13.337Z,11.86
2022-10-11T05:21:01.913Z,11.87
2022-10-11T05:22:43.796Z,11.88
2022-10-11T05:24:27.541Z,11.90
2022-10-11T05:26:16.256Z,11.92
2022-10-11T05:27:58.796Z,11.94
2022-10-11T05:29:46.571Z,11.96
2022-10-11T05:31:29.689Z,11.97
2022-10-11T05:33:16.545Z,12.00
2022-10-11T05:35:04.515Z,12.03
2022-10-11T05:36:47.404Z,12.07
2022-10-11T05:38:34.182Z,12.10
2022-10-11T05:40:19.197Z,12.12
2022-10-11T05:42:10.049Z,12.18
2022-10-11T05:43:55.785Z,12.21
2022-10-11T05:45:40.107Z,12.25
2022-10-11T05:47:25.183Z,12.29
2022-10-11T05:49:08.385Z,12.31
2022-10-11T05:50:59.396Z,12.35
2022-10-11T05:52:48.408Z,12.39
2022-10-11T05:54:38.016Z,12.42
2022-10-11T05:56:28.186Z,12.48
2022-10-11T05:58:18.644Z,12.55
2022-10-11T06:00:05.261Z,12.62
2022-10-11T06:01:56.105Z,12.73
2022-10-11T06:03:38.761Z,12.81
2022-10-11T06:05:28.619Z,12.90
2022-10-11T06:07:14.251Z,12.96
2022-10-11T06:08:59.140Z,12.99
2022-10-11T06:10:44.862Z,13.06
2022-10-11T06:12:28.526Z,13.10
2022-10-11T06:14:50.511Z,13.14
2022-10-11T06:16:58.501Z,13.21
2022-10-11T06:18:56.376Z,13.27
2022-10-11T06:21:06.352Z,13.34
2022-10-11T06:23:03.100Z,13.41
2022-10-11T06:25:03.356Z,13.48
2022-10-11T06:27:01.257Z,13.53
2022-10-11T06:29:03.500Z,13.60
2022-10-11T06:31:13.892Z,13.65
2022-10-11T06:33:22.433Z,13.70
2022-10-11T06:35:26.400Z,13.76
2022-10-11T06:37:25.109Z,13.80
2022-10-11T06:39:23.774Z,13.84
2022-10-11T06:41:28.624Z,13.89
2022-10-11T06:43:38.310Z,14.00
2022-10-11T06:45:45.620Z,14.09
2022-10-11T06:47:49.731Z,14.20
2022-10-11T06:49:52.666Z,14.31
2022-10-11T06:52:05.228Z,14.41
2022-10-11T06:54:08.267Z,14.49
2022-10-11T06:56:14.486Z,14.54
2022-10-11T06:58:12.664Z,14.60
2022-10-11T07:00:13.045Z,14.61
2022-10-11T07:02:16.032Z,14.64
2022-10-11T07:04:12.717Z,14.62
2022-10-11T07:06:11.198Z,14.67
2022-10-11T07:08:18.770Z,14.72
2022-10-11T07:10:26.893Z,14.75
2022-10-11T07:12:31.167Z,14.80
2022-10-11T07:15:05.799Z,14.86
2022-10-11T07:17:14.901Z,14.86
2022-10-11T07:19:12.205Z,14.83
2022-10-11T07:21:14.899Z,14.84
2022-10-11T07:22:55.961Z,14.90
2022-10-11T07:25:07.064Z,14.92
2022-10-11T07:27:15.034Z,15.06
2022-10-11T07:29:13.790Z,15.13
2022-10-11T07:31:16.571Z,15.27
2022-10-11T07:33:20.908Z,15.39
2022-10-11T07:35:36.535Z,15.42
2022-10-11T07:37:38.091Z,15.48
2022-10-11T07:39:39.709Z,15.54
2022-10-11T07:41:45.910Z,15.54
2022-10-11T07:43:49.584Z,15.51
2022-10-11T07:45:55.672Z,15.47
2022-10-11T07:48:09.041Z,15.47
2022-10-11T07:50:13.223Z,15.45
2022-10-11T07:52:13.314Z,15.35
2022-10-11T07:54:20.965Z,15.27
2022-10-11T07:56:21.684Z,15.31
2022-10-11T07:58:23.308Z,15.61
2022-10-11T08:00:20.714Z,15.93
2022-10-11T08:02:34.433Z,16.16
2022-10-11T08:04:30.906Z,16.22
2022-10-11T08:06:32.679Z,16.27
2022-10-11T08:08:33.318Z,16.36
2022-10-11T08:10:42.554Z,16.45
2022-10-11T08:12:43.317Z,16.48
2022-10-11T08:14:54.669Z,16.32
2022-10-11T08:17:10.773Z,16.15
2022-10-11T08:19:10.139Z,15.97
2022-10-11T08:21:14.809Z,15.84
2022-10-11T08:23:16.557Z,15.77
2022-10-11T08:24:57.931Z,15.69
2022-10-11T08:27:03.914Z,15.56
2022-10-11T08:29:05.240Z,15.49
2022-10-11T08:31:21.401Z,15.43
2022-10-11T08:33:24.859Z,15.32
2022-10-11T08:35:31.374Z,15.24
2022-10-11T08:37:35.298Z,15.19
2022-10-11T08:39:33.604Z,15.17
2022-10-11T08:42:00.091Z,15.19
2022-10-11T08:44:13.680Z,15.26
2022-10-11T08:46:29.094Z,15.28
2022-10-11T08:48:38.181Z,15.32
2022-10-11T08:50:41.186Z,15.40
2022-10-11T08:53:22.360Z,15.49
2022-10-11T08:55:34.838Z,15.52
2022-10-11T08:58:01.214Z,15.62
2022-10-11T09:00:03.464Z,15.66
2022-10-11T09:01:54.684Z,15.69
2022-10-11T09:03:44.247Z,15.70
2022-10-11T09:05:47.045Z,15.67
2022-10-11T09:07:56.829Z,15.65
2022-10-11T09:09:55.785Z,15.65
2022-10-11T09:11:40.182Z,15.64
2022-10-11T09:13:34.126Z,15.66
2022-10-11T09:15:47.030Z,15.66
2022-10-11T09:17:43.953Z,15.68
2022-10-11T09:19:28.772Z,15.73
2022-10-11T09:21:27.773Z,15.80
2022-10-11T09:23:17.049Z,15.84
2022-10-11T09:25:07.424Z,15.88
2022-10-11T09:26:55.219Z,15.91
2022-10-11T09:28:32.008Z,15.95
2022-10-11T09:30:06.555Z,15.99
2022-10-11T09:31:38.495Z,15.99
2022-10-11T09:33:10.436Z,15.99
2022-10-11T09:34:43.015Z,16.05
2022-10-11T09:36:32.769Z,16.08
2022-10-11T09:38:07.703Z,16.11
2022-10-11T09:39:45.157Z,16.13
2022-10-11T09:41:35.623Z,16.17
2022-10-11T09:43:09.288Z,16.24
2022-10-11T09:44:48.892Z,16.29
2022-10-11T09:46:31.882Z,16.33
2022-10-11T09:48:05.038Z,16.39
2022-10-11T09:49:42.682Z,16.45
2022-10-11T09:51:19.427Z,16.52
2022-10-11T09:52:51.600Z,16.58
2022-10-11T09:54:37.441Z,16.65
2022-10-11T09:56:09.825Z,16.70
2022-10-11T09:57:42.044Z,16.74
2022-10-11T09:59:13.951Z,16.79
2022-10-11T10:00:56.795Z,16.83
2022-10-11T10:02:30.404Z,16.86
2022-10-11T10:04:07.646Z,16.88
2022-10-11T10:05:39.709Z,16.90
2022-10-11T10:07:13.322Z,16.93
2022-10-11T10:08:47.478Z,16.97
2022-10-11T10:10:27.247Z,16.99
2022-10-11T10:11:59.480Z,17.05
2022-10-11T10:13:43.392Z,17.10
2022-10-11T10:15:18.773Z,17.14
2022-10-11T10:16:58.274Z,17.18
2022-10-11T10:18:34.137Z,17.23
2022-10-11T10:20:06.484Z,17.25
2022-10-11T10:21:49.269Z,17.29
2022-10-11T10:23:26.087Z,17.32
2022-10-11T10:24:58.975Z,17.37
2022-10-11T10:26:31.498Z,17.41
2022-10-11T10:28:05.043Z,17.47
2022-10-11T10:29:37.436Z,17.49
2022-10-11T10:31:20.896Z,17.52
2022-10-11T10:32:59.895Z,17.58
2022-10-11T10:34:34.086Z,17.64
2022-10-11T10:36:34.878Z,17.70
2022-10-11T10:38:21.735Z,17.75
2022-10-11T10:40:01.821Z,17.79
2022-10-11T10:41:36.077Z,17.79
2022-10-11T10:43:15.632Z,17.82
2022-10-11T10:44:55.195Z,17.89
2022-10-11T10:46:29.857Z,17.93
2022-10-11T10:48:10.797Z,17.97
2022-10-11T10:50:02.921Z,17.97
2022-10-11T10:51:43.228Z,17.98
2022-10-11T10:53:25.375Z,18.00
2022-10-11T10:55:16.050Z,18.01
2022-10-11T10:56:57.397Z,18.02
2022-10-11T10:58:29.448Z,18.06
2022-10-11T11:00:13.796Z,18.11
2022-10-11T11:01:51.513Z,18.16
2022-10-11T11:03:31.022Z,18.22
2022-10-11T11:05:17.557Z,18.27
2022-10-11T11:06:51.079Z,18.34
2022-10-11T11:08:28.652Z,18.41
2022-10-11T11:10:12.220Z,18.47
2022-10-11T11:11:44.174Z,18.55
2022-10-11T11:13:38.330Z,18.62
2022-10-11T11:15:15.060Z,18.72
2022-10-11T11:17:02.278Z,18.88
2022-10-11T11:18:40.039Z,19.06
2022-10-11T11:20:19.423Z,19.24
2022-10-11T11:22:09.236Z,19.37
2022-10-11T11:23:49.810Z,19.53
2022-10-11T11:25:24.103Z,19.68
2022-10-11T11:26:56.038Z,19.74
2022-10-11T11:28:28.029Z,19.75
2022-10-11T11:29:59.928Z,19.68
2022-10-11T11:31:35.007Z,19.66
2022-10-11T11:33:06.851Z,19.73
2022-10-11T11:34:42.495Z,19.82
2022-10-11T11:36:16.734Z,19.84
2022-10-11T11:37:54.080Z,19.91
2022-10-11T11:39:31.385Z,19.94
2022-10-11T11:41:06.319Z,20.03
2022-10-11T11:42:50.254Z,20.10
2022-10-11T11:44:28.569Z,20.08
2022-10-11T11:46:04.633Z,20.13
2022-10-11T11:47:38.101Z,20.27
2022-10-11T11:49:33.115Z,20.43
2022-10-11T11:51:05.286Z,20.32
2022-10-11T11:52:39.796Z,20.20
2022-10-11T11:54:11.881Z,20.24
2022-10-11T11:55:55.905Z,20.37
2022-10-11T11:57:39.800Z,20.44
2022-10-11T11:59:17.231Z,20.51
2022-10-11T12:00:54.469Z,20.43
2022-10-11T12:02:39.159Z,20.45
2022-10-11T12:04:29.547Z,20.40
2022-10-11T12:06:13.961Z,20.37
2022-10-11T12:07:59.648Z,20.33
2022-10-11T12:09:32.254Z,20.35
2022-10-11T12:11:04.742Z,20.41
2022-10-11T12:12:37.711Z,20.56
2022-10-11T12:14:15.875Z,20.73
2022-10-11T12:15:59.525Z,20.67
2022-10-11T12:17:31.732Z,20.63
2022-10-11T12:19:03.993Z,20.60
2022-10-11T12:20:38.730Z,20.64
2022-10-11T12:22:37.679Z,20.66
2022-10-11T12:24:09.628Z,20.70
2022-10-11T12:25:43.699Z,20.84
2022-10-11T12:27:34.293Z,20.84
2022-10-11T12:29:28.475Z,20.81
2022-10-11T12:31:05.324Z,20.87
2022-10-11T12:32:38.680Z,20.89
2022-10-11T12:34:10.525Z,20.85
2022-10-11T12:35:54.374Z,20.86
2022-10-11T12:37:32.277Z,20.85
2022-10-11T12:39:19.649Z,20.84
2022-10-11T12:40:57.106Z,20.86
2022-10-11T12:42:29.044Z,20.89
2022-10-11T12:44:08.935Z,21.00
2022-10-11T12:45:41.469Z,21.00
2022-10-11T12:47:21.735Z,21.06
2022-10-11T12:49:14.157Z,21.19
2022-10-11T12:50:46.191Z,21.04
2022-10-11T12:52:18.088Z,20.94
2022-10-11T12:54:25.879Z,20.75
2022-10-11T12:56:01.936Z,20.57
2022-10-11T12:57:46.339Z,20.51
2022-10-11T12:59:21.205Z,20.45
2022-10-11T13:00:55.177Z,20.39
2022-10-11T13:02:30.771Z,20.36
2022-10-11T13:04:11.498Z,20.30
2022-10-11T13:05:45.157Z,20.21
2022-10-11T13:07:23.672Z,20.08
2022-10-11T13:08:59.311Z,20.00
2022-10-11T13:10:35.347Z,20.01
2022-10-11T13:12:09.492Z,20.02
2022-10-11T13:13:42.939Z,20.06
2022-10-11T13:15:16.562Z,20.05
2022-10-11T13:16:51.457Z,20.05
2022-10-11T13:18:24.687Z,20.08
2022-10-11T13:20:00.516Z,20.09
2022-10-11T13:21:36.671Z,20.08
2022-10-11T13:23:25.040Z,20.07
2022-10-11T13:24:57.967Z,20.08
2022-10-11T13:26:31.398Z,20.07
2022-10-11T13:28:03.680Z,20.05
2022-10-11T13:29:38.011Z,19.97
2022-10-11T13:31:10.305Z,19.88
2022-10-11T13:32:42.583Z,19.78
2022-10-11T13:34:15.473Z,19.73
2022-10-11T13:35:48.695Z,19.69
2022-10-11T13:37:21.964Z,19.68
2022-10-11T13:38:58.631Z,19.64
2022-10-11T13:40:30.940Z,19.64
2022-10-11T13:42:05.060Z,19.68
2022-10-11T13:43:37.199Z,19.63
2022-10-11T13:45:10.413Z,19.70
2022-10-11T13:46:42.495Z,19.65
2022-10-11T13:48:15.649Z,19.65
2022-10-11T13:49:50.482Z,19.66
2022-10-11T13:51:32.208Z,19.61
2022-10-11T13:53:21.211Z,19.61
2022-10-11T13:54:53.244Z,19.63
2022-10-11T13:56:26.286Z,19.61
2022-10-11T13:57:59.655Z,19.53
2022-10-11T13:59:31.670Z,19.41
2022-10-11T14:01:23.922Z,19.35
2022-10-11T14:03:28.539Z,19.24
2022-10-11T14:05:00.493Z,19.07
2022-10-11T14:06:48.719Z,18.99
2022-10-11T14:08:29.724Z,18.96
2022-10-11T14:10:01.821Z,18.94
2022-10-11T14:11:36.603Z,18.88
2022-10-11T14:13:23.831Z,18.86
2022-10-11T14:14:55.794Z,18.81
2022-10-11T14:16:28.986Z,18.73
2022-10-11T14:18:02.048Z,18.70
2022-10-11T14:19:33.940Z,18.64
2022-10-11T14:21:26.137Z,18.63
2022-10-11T14:22:58.656Z,18.62
2022-10-11T14:24:30.587Z,18.64
2022-10-11T14:26:02.697Z,18.59
2022-10-11T14:27:36.283Z,18.56
2022-10-11T14:29:11.525Z,18.55
2022-10-11T14:30:43.483Z,18.57
2022-10-11T14:32:18.093Z,18.59
2022-10-11T14:33:50.149Z,18.60
2022-10-11T14:35:23.598Z,18.62
2022-10-11T14:36:55.535Z,18.67
2022-10-11T14:38:27.379Z,18.70
2022-10-11T14:39:59.938Z,18.73
2022-10-11T14:41:31.849Z,18.71
2022-10-11T14:43:03.836Z,18.69
2022-10-11T14:44:35.802Z,18.69
2022-10-11T14:46:10.023Z,18.68
2022-10-11T14:47:43.295Z,18.69
2022-10-11T14:49:19.116Z,18.70
2022-10-11T14:50:53.180Z,18.72
2022-10-11T14:52:25.241Z,18.71
2022-10-11T14:53:57.073Z,18.73
2022-10-11T14:55:30.084Z,18.73
2022-10-11T14:57:03.189Z,18.73
2022-10-11T14:58:35.183Z,18.71
2022-10-11T15:00:14.709Z,18.71
2022-10-11T15:01:46.925Z,18.69
2022-10-11T15:03:18.925Z,18.64
2022-10-11T15:04:50.844Z,18.62
2022-10-11T15:06:24.769Z,18.58
2022-10-11T15:07:57.469Z,18.49
2022-10-11T15:09:30.292Z,18.45
2022-10-11T15:11:02.310Z,18.37
2022-10-11T15:12:34.176Z,18.29
2022-10-11T15:14:06.534Z,18.21
2022-10-11T15:15:40.950Z,18.12
2022-10-11T15:17:12.934Z,18.05
2022-10-11T15:18:50.783Z,17.96
2022-10-11T15:20:27.482Z,17.92
2022-10-11T15:22:02.299Z,17.82
2022-10-11T15:23:34.313Z,17.76
2022-10-11T15:25:06.357Z,17.68
2022-10-11T15:26:38.443Z,17.62
2022-10-11T15:28:19.026Z,17.56
2022-10-11T15:29:51.057Z,17.47
2022-10-11T15:31:23.154Z,17.45
2022-10-11T15:32:55.078Z,17.40
2022-10-11T15:34:27.046Z,17.36
2022-10-11T15:35:58.990Z,17.31
2022-10-11T15:37:35.138Z,17.28
2022-10-11T15:39:26.146Z,17.20
2022-10-11T15:40:58.571Z,17.16
2022-10-11T15:42:30.876Z,17.09
2022-10-11T15:44:02.844Z,17.05
2022-10-11T15:45:35.473Z,16.99
2022-10-11T15:47:07.342Z,16.96
2022-10-11T15:48:39.556Z,16.92
2022-10-11T15:50:34.603Z,16.87
2022-10-11T15:52:06.600Z,16.81
2022-10-11T15:53:38.622Z,16.78
2022-10-11T15:55:10.562Z,16.74
2022-10-11T15:56:43.322Z,16.69
2022-10-11T15:58:16.925Z,16.66
2022-10-11T15:59:48.767Z,16.64
2022-10-11T16:01:20.771Z,16.65
2022-10-11T16:02:53.095Z,16.67
2022-10-11T16:04:25.062Z,16.66
2022-10-11T16:06:02.395Z,16.65
2022-10-11T16:07:36.722Z,16.66
2022-10-11T16:09:08.652Z,16.66
2022-10-11T16:10:41.318Z,16.68
2022-10-11T16:12:13.219Z,16.67
2022-10-11T16:13:45.317Z,16.65
2022-10-11T16:15:17.517Z,16.68
2022-10-11T16:16:49.705Z,16.66
2022-10-11T16:18:22.281Z,16.67
2022-10-11T16:19:54.284Z,16.70
2022-10-11T16:21:26.203Z,16.71
2022-10-11T16:22:58.173Z,16.69
2022-10-11T16:24:30.021Z,16.70
2022-10-11T16:26:04.314Z,16.67
2022-10-11T16:27:36.523Z,16.65
2022-10-11T16:29:08.465Z,16.61
2022-10-11T16:30:43.266Z,16.61
2022-10-11T16:32:15.272Z,16.60
2022-10-11T16:33:47.813Z,16.57
2022-10-11T16:35:19.947Z,16.57
2022-10-11T16:36:51.963Z,16.57
2022-10-11T16:38:23.922Z,16.56
2022-10-11T16:39:55.853Z,16.56
2022-10-11T16:41:28.023Z,16.54
2022-10-11T16:43:07.442Z,16.56
2022-10-11T16:44:42.626Z,16.54
2022-10-11T16:46:14.478Z,16.50
2022-10-11T16:47:46.461Z,16.47
2022-10-11T16:49:20.103Z,16.47
2022-10-11T16:50:52.111Z,16.47
2022-10-11T16:52:24.018Z,16.45
2022-10-11T16:53:55.969Z,16.49
2022-10-11T16:55:27.912Z,16.47
2022-10-11T16:56:59.929Z,16.53
2022-10-11T16:58:31.820Z,16.49
2022-10-11T17:00:08.620Z,16.48
2022-10-11T17:01:40.508Z,16.46
2022-10-11T17:03:12.503Z,16.48
2022-10-11T17:04:44.575Z,16.45
2022-10-11T17:06:16.852Z,16.42
2022-10-11T17:07:48.759Z,16.44
2022-10-11T17:09:20.818Z,16.44
2022-10-11T17:10:57.843Z,16.41
2022-10-11T17:12:31.957Z,16.42
2022-10-11T17:14:05.236Z,16.41
2022-10-11T17:15:37.311Z,16.39
2022-10-11T17:17:09.870Z,16.37
2022-10-11T17:18:41.947Z,16.32
2022-10-11T17:20:13.855Z,16.31
2022-10-11T17:21:45.839Z,16.28
2022-10-11T17:23:17.774Z,16.26
2022-10-11T17:24:49.770Z,16.23
2022-10-11T17:26:23.450Z,16.21
2022-10-11T17:27:58.323Z,16.19
2022-10-11T17:29:30.830Z,16.18
2022-10-11T17:31:04.145Z,16.16
2022-10-11T17:32:36.270Z,16.12
2022-10-11T17:34:08.213Z,16.08
2022-10-11T17:35:40.137Z,16.03
2022-10-11T17:37:12.690Z,16.04
2022-10-11T17:38:44.658Z,16.02
2022-10-11T17:40:16.601Z,15.97
2022-10-11T17:41:48.575Z,15.91
2022-10-11T17:43:20.538Z,15.86
2022-10-11T17:44:52.483Z,15.82
2022-10-11T17:46:25.414Z,15.77
2022-10-11T17:47:57.282Z,15.74
2022-10-11T17:49:29.239Z,15.75
2022-10-11T17:51:05.591Z,15.77
2022-10-11T17:52:37.751Z,15.74
2022-10-11T17:54:12.930Z,15.76
2022-10-11T17:55:45.405Z,15.76
2022-10-11T17:57:17.287Z,15.73
2022-10-11T17:58:49.559Z,15.73
2022-10-11T18:00:21.412Z,15.70
2022-10-11T18:01:53.965Z,15.69
2022-10-11T18:03:25.819Z,15.68
2022-10-11T18:04:58.064Z,15.66
2022-10-11T18:06:31.074Z,15.65
2022-10-11T18:08:03.039Z,15.61
2022-10-11T18:09:35.050Z,15.59
2022-10-11T18:11:11.042Z,15.59
2022-10-11T18:12:42.933Z,15.58
2022-10-11T18:14:15.098Z,15.57
2022-10-11T18:15:51.390Z,15.55
2022-10-11T18:17:25.457Z,15.49
2022-10-11T18:18:57.937Z,15.45
2022-10-11T18:20:29.851Z,15.43
2022-10-11T18:22:06.674Z,15.41
2022-10-11T18:23:39.184Z,15.39
2022-10-11T18:25:11.079Z,15.37
2022-10-11T18:26:43.756Z,15.39
2022-10-11T18:28:18.706Z,15.36
2022-10-11T18:29:50.772Z,15.40
2022-10-11T18:31:23.942Z,15.42
2022-10-11T18:32:55.867Z,15.39
2022-10-11T18:34:29.087Z,15.34
2022-10-11T18:36:01.467Z,15.31
2022-10-11T18:37:33.337Z,15.30
2022-10-11T18:39:06.608Z,15.39
2022-10-11T18:40:42.228Z,15.42
2022-10-11T18:42:16.795Z,15.48
2022-10-11T18:43:52.482Z,15.53
2022-10-11T18:45:24.561Z,15.59
2022-10-11T18:46:56.628Z,15.63
2022-10-11T18:48:28.610Z,15.72
2022-10-11T18:50:00.462Z,15.75
2022-10-11T18:51:34.030Z,15.77
2022-10-11T18:53:06.922Z,15.78
2022-10-11T18:54:38.938Z,15.78
2022-10-11T18:56:12.082Z,15.84
2022-10-11T18:57:44.431Z,15.83
2022-10-11T18:59:16.361Z,15.82
2022-10-11T19:00:48.370Z,15.83
2022-10-11T19:02:20.285Z,15.84
2022-10-11T19:03:54.013Z,15.84
2022-10-11T19:05:25.931Z,15.81
2022-10-11T19:06:58.079Z,15.78
2022-10-11T19:08:29.944Z,15.78
2022-10-11T19:10:02.949Z,15.79
2022-10-11T19:11:34.869Z,15.82
2022-10-11T19:13:06.850Z,15.81
2022-10-11T19:14:38.766Z,15.81
2022-10-11T19:16:12.929Z,15.79
2022-10-11T19:17:44.794Z,15.79
2022-10-11T19:19:20.589Z,15.79
2022-10-11T19:20:52.694Z,15.79
2022-10-11T19:22:24.748Z,15.79
2022-10-11T19:23:56.896Z,15.81
2022-10-11T19:25:28.972Z,15.79
2022-10-11T19:27:03.267Z,15.79
2022-10-11T19:28:35.246Z,15.75
2022-10-11T19:30:07.443Z,15.72
2022-10-11T19:31:44.577Z,15.70
2022-10-11T19:33:16.782Z,15.70
2022-10-11T19:34:48.746Z,15.69
2022-10-11T19:36:20.624Z,15.70
2022-10-11T19:37:52.573Z,15.70
2022-10-11T19:39:24.851Z,15.69
2022-10-11T19:40:56.875Z,15.70
2022-10-11T19:42:29.070Z,15.69
2022-10-11T19:44:01.415Z,15.67
2022-10-11T19:45:35.158Z,15.69
2022-10-11T19:47:07.241Z,15.66
2022-10-11T19:48:39.359Z,15.63
2022-10-11T19:50:11.414Z,15.63
2022-10-11T19:51:43.373Z,15.62
2022-10-11T19:53:15.291Z,15.60
2022-10-11T19:54:47.149Z,15.60
2022-10-11T19:56:19.159Z,15.62
2022-10-11T19:57:51.142Z,15.66
2022-10-11T19:59:23.214Z,15.69
2022-10-11T20:01:05.654Z,15.75
2022-10-11T20:02:37.644Z,15.77
2022-10-11T20:04:22.661Z,15.78
2022-10-11T20:06:06.943Z,15.78
2022-10-11T20:07:38.942Z,15.79
2022-10-11T20:09:30.686Z,15.81
2022-10-11T20:11:09.346Z,15.80
2022-10-11T20:12:45.722Z,15.78
2022-10-11T20:14:17.880Z,15.76
2022-10-11T20:15:49.856Z,15.75
2022-10-11T20:17:21.790Z,15.74
2022-10-11T20:18:54.536Z,15.73
2022-10-11T20:20:27.010Z,15.70
2022-10-11T20:21:59.786Z,15.67
2022-10-11T20:23:34.659Z,15.63
2022-10-11T20:25:07.061Z,15.59
2022-10-11T20:26:39.443Z,15.57
2022-10-11T20:28:11.429Z,15.53
2022-10-11T20:29:43.309Z,15.52
2022-10-11T20:31:16.737Z,15.49
2022-10-11T20:32:48.605Z,15.48
2022-10-11T20:34:20.590Z,15.46
2022-10-11T20:35:58.581Z,15.42
2022-10-11T20:37:30.759Z,15.38
2022-10-11T20:39:04.103Z,15.34
2022-10-11T20:40:39.646Z,15.31
2022-10-11T20:42:11.687Z,15.25
2022-10-11T20:43:44.450Z,15.21
2022-10-11T20:45:16.379Z,15.17
2022-10-11T20:46:48.345Z,15.14
2022-10-11T20:48:20.231Z,15.09
2022-10-11T20:49:52.157Z,15.06
2022-10-11T20:51:24.129Z,15.02
2022-10-11T20:52:56.030Z,14.98
2022-10-11T20:54:29.806Z,14.95
2022-10-11T20:56:01.827Z,14.93
2022-10-11T20:57:33.896Z,14.91
2022-10-11T20:59:06.728Z,14.89
2022-10-11T21:00:39.151Z,14.88
2022-10-11T21:02:14.343Z,14.87
2022-10-11T21:03:50.474Z,14.86
2022-10-11T21:05:22.448Z,14.84
2022-10-11T21:06:54.386Z,14.83
2022-10-11T21:08:26.733Z,14.83
2022-10-11T21:09:58.689Z,14.81
2022-10-11T21:11:33.568Z,14.79
2022-10-11T21:13:05.594Z,14.79
2022-10-11T21:14:37.480Z,14.79
2022-10-11T21:16:13.546Z,14.78
2022-10-11T21:17:45.457Z,14.75
2022-10-11T21:19:17.321Z,14.72
2022-10-11T21:20:49.519Z,14.69
2022-10-11T21:22:21.367Z,14.67
2022-10-11T21:23:53.994Z,14.65
2022-10-11T21:25:25.864Z,14.62
2022-10-11T21:27:00.684Z,14.60
2022-10-11T21:28:33.048Z,14.57
2022-10-11T21:30:05.271Z,14.55
2022-10-11T21:31:37.214Z,14.53
2022-10-11T21:33:09.125Z,14.50
2022-10-11T21:34:41.023Z,14.48
2022-10-11T21:36:14.616Z,14.44
2022-10-11T21:37:46.480Z,14.42
2022-10-11T21:39:18.376Z,14.39
2022-10-11T21:40:50.267Z,14.36
2022-10-11T21:42:25.906Z,14.33
2022-10-11T21:44:00.938Z,14.28
2022-10-11T21:45:36.380Z,14.26
2022-10-11T21:47:08.233Z,14.22
2022-10-11T21:48:40.336Z,14.16
2022-10-11T21:50:12.237Z,14.12
2022-10-11T21:51:44.191Z,14.10
2022-10-11T21:53:16.113Z,14.09
2022-10-11T21:54:47.994Z,14.05